sensor_id;sensor_type;location;lat;lon;timestamp;pressure;altitude;pressure_sealevel;temperature;humidity
47811;BME280;33575;52.600;7.318;2023-02-25T00:02:05;100201.56;;;2.54;100.00
47811;BME280;33575;52.600;7.318;2023-02-25T00:04:34;100196.96;;;2.67;99.82
47811;BME280;33575;52.600;7.318;2023-02-25T00:07:05;100198.82;;;2.74;99.51
47811;BME280;33575;52.600;7.318;2023-02-25T00:09:35;100197.05;;;2.84;98.75
47811;BME280;33575;52.600;7.318;2023-02-25T00:12:06;100198.01;;;2.86;99.40
47811;BME280;33575;52.600;7.318;2023-02-25T00:14:37;100196.32;;;2.89;98.80
47811;BME280;33575;52.600;7.318;2023-02-25T00:17:08;100198.66;;;2.98;98.41
47811;BME280;33575;52.600;7.318;2023-02-25T00:19:39;100196.73;;;3.01;97.70
47811;BME280;33575;52.600;7.318;2023-02-25T00:22:09;100201.71;;;2.90;98.37
47811;BME280;33575;52.600;7.318;2023-02-25T00:24:40;100201.40;;;2.91;98.65
47811;BME280;33575;52.600;7.318;2023-02-25T00:27:11;100197.53;;;2.99;98.08
47811;BME280;33575;52.600;7.318;2023-02-25T00:29:42;100203.78;;;3.04;97.72
47811;BME280;33575;52.600;7.318;2023-02-25T00:32:13;100210.20;;;3.08;97.60
47811;BME280;33575;52.600;7.318;2023-02-25T00:34:43;100202.77;;;3.14;97.28
47811;BME280;33575;52.600;7.318;2023-02-25T00:37:14;100210.25;;;3.05;97.91
47811;BME280;33575;52.600;7.318;2023-02-25T00:39:45;100215.02;;;2.86;98.79
47811;BME280;33575;52.600;7.318;2023-02-25T00:42:17;100220.00;;;2.77;99.65
47811;BME280;33575;52.600;7.318;2023-02-25T00:44:47;100224.04;;;2.90;99.01
47811;BME280;33575;52.600;7.318;2023-02-25T00:47:18;100224.96;;;2.92;98.88
47811;BME280;33575;52.600;7.318;2023-02-25T00:49:48;100227.68;;;2.84;98.95
47811;BME280;33575;52.600;7.318;2023-02-25T00:52:18;100237.32;;;2.83;98.98
47811;BME280;33575;52.600;7.318;2023-02-25T00:54:49;100240.16;;;2.75;99.74
47811;BME280;33575;52.600;7.318;2023-02-25T00:57:20;100235.98;;;2.70;100.00
47811;BME280;33575;52.600;7.318;2023-02-25T00:59:50;100243.18;;;2.99;98.81
47811;BME280;33575;52.600;7.318;2023-02-25T01:02:21;100253.55;;;2.95;98.31
47811;BME280;33575;52.600;7.318;2023-02-25T01:04:52;100258.51;;;2.88;98.92
47811;BME280;33575;52.600;7.318;2023-02-25T01:07:23;100260.49;;;3.03;98.87
47811;BME280;33575;52.600;7.318;2023-02-25T01:09:54;100262.70;;;3.03;98.82
47811;BME280;33575;52.600;7.318;2023-02-25T01:12:24;100262.99;;;3.10;98.30
47811;BME280;33575;52.600;7.318;2023-02-25T01:14:55;100270.75;;;3.03;98.11
47811;BME280;33575;52.600;7.318;2023-02-25T01:17:26;100264.91;;;3.05;98.27
47811;BME280;33575;52.600;7.318;2023-02-25T01:19:57;100274.18;;;2.95;99.51
47811;BME280;33575;52.600;7.318;2023-02-25T01:22:27;100270.19;;;3.09;98.67
47811;BME280;33575;52.600;7.318;2023-02-25T01:24:58;100264.31;;;3.06;98.98
47811;BME280;33575;52.600;7.318;2023-02-25T01:27:29;100260.16;;;3.08;98.90
47811;BME280;33575;52.600;7.318;2023-02-25T01:30:00;100266.00;;;3.04;99.01
47811;BME280;33575;52.600;7.318;2023-02-25T01:32:31;100270.72;;;3.05;98.98
47811;BME280;33575;52.600;7.318;2023-02-25T01:35:01;100276.20;;;2.85;98.95
47811;BME280;33575;52.600;7.318;2023-02-25T01:37:32;100274.44;;;2.82;100.00
47811;BME280;33575;52.600;7.318;2023-02-25T01:40:04;100279.75;;;2.93;99.28
47811;BME280;33575;52.600;7.318;2023-02-25T01:42:33;100277.24;;;2.96;99.09
47811;BME280;33575;52.600;7.318;2023-02-25T01:47:37;100280.91;;;2.97;98.42
47811;BME280;33575;52.600;7.318;2023-02-25T01:50:07;100274.62;;;2.99;98.56
47811;BME280;33575;52.600;7.318;2023-02-25T01:52:37;100275.23;;;2.87;99.72
47811;BME280;33575;52.600;7.318;2023-02-25T01:55:08;100273.32;;;2.98;99.04
47811;BME280;33575;52.600;7.318;2023-02-25T01:57:38;100271.36;;;2.94;98.88
47811;BME280;33575;52.600;7.318;2023-02-25T02:00:10;100270.34;;;2.68;100.00
47811;BME280;33575;52.600;7.318;2023-02-25T02:02:40;100268.88;;;2.77;99.53
47811;BME280;33575;52.600;7.318;2023-02-25T02:05:11;100267.68;;;2.72;99.73
47811;BME280;33575;52.600;7.318;2023-02-25T02:07:41;100268.97;;;2.68;100.00
47811;BME280;33575;52.600;7.318;2023-02-25T02:10:12;100271.16;;;2.79;99.57
47811;BME280;33575;52.600;7.318;2023-02-25T02:12:44;100269.99;;;2.77;98.54
47811;BME280;33575;52.600;7.318;2023-02-25T02:15:14;100273.03;;;2.87;98.70
47811;BME280;33575;52.600;7.318;2023-02-25T02:17:48;100267.70;;;2.88;98.17
47811;BME280;33575;52.600;7.318;2023-02-25T02:20:19;100265.89;;;2.95;97.73
47811;BME280;33575;52.600;7.318;2023-02-25T02:22:54;100265.19;;;2.78;98.77
47811;BME280;33575;52.600;7.318;2023-02-25T02:25:28;100268.01;;;2.71;98.91
47811;BME280;33575;52.600;7.318;2023-02-25T02:28:02;100265.79;;;2.80;98.22
47811;BME280;33575;52.600;7.318;2023-02-25T02:30:32;100266.43;;;2.83;97.94
47811;BME280;33575;52.600;7.318;2023-02-25T02:32:53;100261.24;;;2.90;97.83
47811;BME280;33575;52.600;7.318;2023-02-25T02:35:25;100258.88;;;2.89;97.97
47811;BME280;33575;52.600;7.318;2023-02-25T02:37:57;100258.78;;;2.95;97.93
47811;BME280;33575;52.600;7.318;2023-02-25T02:40:30;100258.30;;;2.93;97.64
47811;BME280;33575;52.600;7.318;2023-02-25T02:43:04;100264.86;;;2.99;97.79
47811;BME280;33575;52.600;7.318;2023-02-25T02:45:27;100270.82;;;2.98;96.87
47811;BME280;33575;52.600;7.318;2023-02-25T02:47:58;100268.98;;;2.92;97.81
47811;BME280;33575;52.600;7.318;2023-02-25T02:50:29;100281.73;;;2.79;98.44
47811;BME280;33575;52.600;7.318;2023-02-25T02:52:58;100286.38;;;2.91;98.21
47811;BME280;33575;52.600;7.318;2023-02-25T02:55:31;100287.22;;;2.83;99.16
47811;BME280;33575;52.600;7.318;2023-02-25T02:58:01;100289.69;;;2.78;98.21
47811;BME280;33575;52.600;7.318;2023-02-25T03:00:35;100284.04;;;2.43;100.00
47811;BME280;33575;52.600;7.318;2023-02-25T03:03:04;100277.06;;;2.52;100.00
47811;BME280;33575;52.600;7.318;2023-02-25T03:05:30;100277.53;;;2.68;100.00
47811;BME280;33575;52.600;7.318;2023-02-25T03:08:04;100277.93;;;2.70;99.46
47811;BME280;33575;52.600;7.318;2023-02-25T03:10:31;100278.63;;;2.82;98.47
47811;BME280;33575;52.600;7.318;2023-02-25T03:13:02;100285.49;;;2.86;98.78
47811;BME280;33575;52.600;7.318;2023-02-25T03:15:33;100285.88;;;2.92;98.95
47811;BME280;33575;52.600;7.318;2023-02-25T03:18:05;100287.11;;;3.00;99.08
47811;BME280;33575;52.600;7.318;2023-02-25T03:20:37;100290.51;;;3.05;98.68
47811;BME280;33575;52.600;7.318;2023-02-25T03:23:08;100293.52;;;3.08;98.24
47811;BME280;33575;52.600;7.318;2023-02-25T03:25:40;100298.80;;;3.16;97.50
47811;BME280;33575;52.600;7.318;2023-02-25T03:28:15;100295.11;;;3.11;98.31
47811;BME280;33575;52.600;7.318;2023-02-25T03:30:41;100302.12;;;3.09;98.61
47811;BME280;33575;52.600;7.318;2023-02-25T03:33:12;100307.00;;;2.91;100.00
47811;BME280;33575;52.600;7.318;2023-02-25T03:35:39;100306.23;;;2.87;100.00
47811;BME280;33575;52.600;7.318;2023-02-25T03:38:13;100307.39;;;2.86;99.75
47811;BME280;33575;52.600;7.318;2023-02-25T03:40:41;100310.71;;;2.83;100.00
47811;BME280;33575;52.600;7.318;2023-02-25T03:43:14;100313.22;;;2.96;99.75
47811;BME280;33575;52.600;7.318;2023-02-25T03:45:42;100321.70;;;3.01;99.86
47811;BME280;33575;52.600;7.318;2023-02-25T03:48:14;100320.00;;;2.79;100.00
47811;BME280;33575;52.600;7.318;2023-02-25T03:50:46;100316.63;;;2.44;100.00
47811;BME280;33575;52.600;7.318;2023-02-25T03:53:14;100312.19;;;2.40;100.00
47811;BME280;33575;52.600;7.318;2023-02-25T03:55:46;100317.04;;;2.51;100.00
47811;BME280;33575;52.600;7.318;2023-02-25T03:58:16;100321.52;;;2.55;100.00
47811;BME280;33575;52.600;7.318;2023-02-25T04:00:48;100325.73;;;2.47;100.00
47811;BME280;33575;52.600;7.318;2023-02-25T04:03:17;100323.70;;;2.52;99.90
47811;BME280;33575;52.600;7.318;2023-02-25T04:05:48;100319.93;;;2.57;99.11
47811;BME280;33575;52.600;7.318;2023-02-25T04:08:19;100325.81;;;2.53;100.00
47811;BME280;33575;52.600;7.318;2023-02-25T04:10:50;100335.68;;;2.62;99.54
47811;BME280;33575;52.600;7.318;2023-02-25T04:13:21;100337.08;;;2.50;100.00
47811;BME280;33575;52.600;7.318;2023-02-25T04:15:51;100343.59;;;2.42;100.00
47811;BME280;33575;52.600;7.318;2023-02-25T04:18:22;100347.42;;;2.46;100.00
47811;BME280;33575;52.600;7.318;2023-02-25T04:20:53;100347.64;;;2.44;100.00
47811;BME280;33575;52.600;7.318;2023-02-25T04:23:23;100347.59;;;2.53;100.00
47811;BME280;33575;52.600;7.318;2023-02-25T04:25:54;100346.07;;;2.58;100.00
47811;BME280;33575;52.600;7.318;2023-02-25T04:28:25;100345.52;;;2.64;99.68
47811;BME280;33575;52.600;7.318;2023-02-25T04:30:56;100352.58;;;2.57;100.00
47811;BME280;33575;52.600;7.318;2023-02-25T04:33:27;100354.22;;;2.66;99.12
47811;BME280;33575;52.600;7.318;2023-02-25T04:35:58;100360.77;;;2.66;99.42
47811;BME280;33575;52.600;7.318;2023-02-25T04:38:28;100361.45;;;2.69;98.54
47811;BME280;33575;52.600;7.318;2023-02-25T04:40:59;100361.09;;;2.69;99.56
47811;BME280;33575;52.600;7.318;2023-02-25T04:43:30;100362.60;;;2.69;99.34
47811;BME280;33575;52.600;7.318;2023-02-25T04:46:01;100364.69;;;2.73;98.31
47811;BME280;33575;52.600;7.318;2023-02-25T04:48:32;100364.44;;;2.74;98.78
47811;BME280;33575;52.600;7.318;2023-02-25T04:51:03;100364.14;;;2.79;98.46
47811;BME280;33575;52.600;7.318;2023-02-25T04:53:34;100368.92;;;2.74;99.70
47811;BME280;33575;52.600;7.318;2023-02-25T04:56:05;100368.00;;;2.83;99.02
47811;BME280;33575;52.600;7.318;2023-02-25T04:58:36;100370.93;;;2.81;98.81
47811;BME280;33575;52.600;7.318;2023-02-25T05:01:07;100373.03;;;2.78;98.52
47811;BME280;33575;52.600;7.318;2023-02-25T05:03:37;100368.42;;;2.79;99.01
47811;BME280;33575;52.600;7.318;2023-02-25T05:06:08;100373.71;;;2.79;98.88
47811;BME280;33575;52.600;7.318;2023-02-25T05:08:38;100373.23;;;2.86;98.36
47811;BME280;33575;52.600;7.318;2023-02-25T05:11:09;100379.76;;;2.82;98.72
47811;BME280;33575;52.600;7.318;2023-02-25T05:13:39;100381.37;;;2.82;98.24
47811;BME280;33575;52.600;7.318;2023-02-25T05:16:14;100385.21;;;2.87;99.78
47811;BME280;33575;52.600;7.318;2023-02-25T05:18:42;100390.33;;;3.02;100.00
47811;BME280;33575;52.600;7.318;2023-02-25T05:21:14;100386.10;;;3.05;99.82
47811;BME280;33575;52.600;7.318;2023-02-25T05:23:43;100390.31;;;2.55;98.51
47811;BME280;33575;52.600;7.318;2023-02-25T05:26:14;100387.64;;;2.63;98.31
47811;BME280;33575;52.600;7.318;2023-02-25T05:28:44;100388.34;;;2.35;100.00
47811;BME280;33575;52.600;7.318;2023-02-25T05:31:15;100388.68;;;2.25;100.00
47811;BME280;33575;52.600;7.318;2023-02-25T05:33:45;100396.11;;;2.08;100.00
47811;BME280;33575;52.600;7.318;2023-02-25T05:36:17;100393.19;;;1.94;100.00
47811;BME280;33575;52.600;7.318;2023-02-25T05:38:47;100392.88;;;2.00;100.00
47811;BME280;33575;52.600;7.318;2023-02-25T05:41:18;100396.24;;;1.80;100.00
47811;BME280;33575;52.600;7.318;2023-02-25T05:43:49;100398.56;;;1.92;100.00
47811;BME280;33575;52.600;7.318;2023-02-25T05:46:19;100408.37;;;2.03;100.00
47811;BME280;33575;52.600;7.318;2023-02-25T05:48:50;100409.37;;;2.16;100.00
47811;BME280;33575;52.600;7.318;2023-02-25T05:51:21;100413.95;;;2.15;100.00
47811;BME280;33575;52.600;7.318;2023-02-25T05:53:52;100419.11;;;2.26;100.00
47811;BME280;33575;52.600;7.318;2023-02-25T05:56:24;100407.58;;;2.06;100.00
47811;BME280;33575;52.600;7.318;2023-02-25T05:58:54;100411.34;;;2.22;100.00
47811;BME280;33575;52.600;7.318;2023-02-25T06:01:26;100407.32;;;2.29;100.00
47811;BME280;33575;52.600;7.318;2023-02-25T06:03:55;100406.88;;;2.38;100.00
47811;BME280;33575;52.600;7.318;2023-02-25T06:06:28;100412.00;;;2.39;99.54
47811;BME280;33575;52.600;7.318;2023-02-25T06:08:57;100418.31;;;2.40;99.12
47811;BME280;33575;52.600;7.318;2023-02-25T06:11:30;100429.08;;;2.34;99.49
47811;BME280;33575;52.600;7.318;2023-02-25T06:13:59;100435.68;;;2.43;98.94
47811;BME280;33575;52.600;7.318;2023-02-25T06:16:29;100448.39;;;2.38;99.23
47811;BME280;33575;52.600;7.318;2023-02-25T06:19:00;100453.42;;;2.40;98.61
47811;BME280;33575;52.600;7.318;2023-02-25T06:21:31;100455.99;;;2.39;98.46
47811;BME280;33575;52.600;7.318;2023-02-25T06:24:03;100457.20;;;2.46;98.45
47811;BME280;33575;52.600;7.318;2023-02-25T06:26:31;100459.96;;;2.35;99.14
47811;BME280;33575;52.600;7.318;2023-02-25T06:29:02;100462.92;;;2.39;98.68
47811;BME280;33575;52.600;7.318;2023-02-25T06:31:33;100465.28;;;2.36;98.34
47811;BME280;33575;52.600;7.318;2023-02-25T06:34:04;100468.75;;;2.35;99.11
47811;BME280;33575;52.600;7.318;2023-02-25T06:36:35;100467.47;;;2.37;98.44
47811;BME280;33575;52.600;7.318;2023-02-25T06:39:05;100470.78;;;2.39;98.51
47811;BME280;33575;52.600;7.318;2023-02-25T06:41:37;100478.54;;;2.45;98.50
47811;BME280;33575;52.600;7.318;2023-02-25T06:44:07;100490.98;;;2.38;98.42
47811;BME280;33575;52.600;7.318;2023-02-25T06:46:38;100497.02;;;2.41;98.61
47811;BME280;33575;52.600;7.318;2023-02-25T06:49:09;100495.39;;;2.35;98.94
47811;BME280;33575;52.600;7.318;2023-02-25T06:51:40;100502.05;;;2.15;99.92
47811;BME280;33575;52.600;7.318;2023-02-25T06:54:10;100499.40;;;2.26;99.90
47811;BME280;33575;52.600;7.318;2023-02-25T06:56:41;100501.09;;;2.23;99.22
47811;BME280;33575;52.600;7.318;2023-02-25T06:59:12;100505.52;;;2.27;99.15
47811;BME280;33575;52.600;7.318;2023-02-25T07:01:43;100505.46;;;2.34;99.03
47811;BME280;33575;52.600;7.318;2023-02-25T07:04:15;100507.03;;;2.31;98.76
47811;BME280;33575;52.600;7.318;2023-02-25T07:06:45;100511.89;;;2.31;98.98
47811;BME280;33575;52.600;7.318;2023-02-25T07:09:15;100520.42;;;2.31;99.35
47811;BME280;33575;52.600;7.318;2023-02-25T07:11:46;100521.86;;;2.31;99.74
47811;BME280;33575;52.600;7.318;2023-02-25T07:14:17;100520.30;;;2.20;100.00
47811;BME280;33575;52.600;7.318;2023-02-25T07:16:48;100519.17;;;2.25;100.00
47811;BME280;33575;52.600;7.318;2023-02-25T07:19:19;100524.71;;;2.27;100.00
47811;BME280;33575;52.600;7.318;2023-02-25T07:21:49;100529.25;;;2.30;99.80
47811;BME280;33575;52.600;7.318;2023-02-25T07:24:20;100531.63;;;2.25;100.00
47811;BME280;33575;52.600;7.318;2023-02-25T07:26:51;100535.80;;;2.35;99.29
47811;BME280;33575;52.600;7.318;2023-02-25T07:29:22;100536.75;;;2.37;100.00
47811;BME280;33575;52.600;7.318;2023-02-25T07:31:53;100539.82;;;2.35;99.95
47811;BME280;33575;52.600;7.318;2023-02-25T07:34:24;100545.31;;;2.29;100.00
47811;BME280;33575;52.600;7.318;2023-02-25T07:36:54;100539.77;;;2.39;100.00
47811;BME280;33575;52.600;7.318;2023-02-25T07:39:25;100545.00;;;2.45;99.32
47811;BME280;33575;52.600;7.318;2023-02-25T07:41:56;100552.45;;;2.48;100.00
47811;BME280;33575;52.600;7.318;2023-02-25T07:44:27;100565.42;;;2.46;100.00
47811;BME280;33575;52.600;7.318;2023-02-25T07:46:58;100569.66;;;2.41;100.00
47811;BME280;33575;52.600;7.318;2023-02-25T07:49:29;100565.34;;;2.30;100.00
47811;BME280;33575;52.600;7.318;2023-02-25T07:51:59;100579.89;;;2.21;100.00
47811;BME280;33575;52.600;7.318;2023-02-25T07:54:30;100575.72;;;2.12;100.00
47811;BME280;33575;52.600;7.318;2023-02-25T07:57:01;100580.42;;;2.13;100.00
47811;BME280;33575;52.600;7.318;2023-02-25T07:59:32;100581.79;;;2.24;100.00
47811;BME280;33575;52.600;7.318;2023-02-25T08:02:03;100585.19;;;2.22;100.00
47811;BME280;33575;52.600;7.318;2023-02-25T08:04:33;100585.42;;;2.09;100.00
47811;BME280;33575;52.600;7.318;2023-02-25T08:07:04;100587.43;;;2.19;100.00
47811;BME280;33575;52.600;7.318;2023-02-25T08:09:35;100590.87;;;2.36;100.00
47811;BME280;33575;52.600;7.318;2023-02-25T08:12:06;100601.09;;;2.37;100.00
47811;BME280;33575;52.600;7.318;2023-02-25T08:14:37;100604.81;;;2.43;100.00
47811;BME280;33575;52.600;7.318;2023-02-25T08:17:07;100602.19;;;2.34;100.00
47811;BME280;33575;52.600;7.318;2023-02-25T08:19:38;100602.88;;;2.49;100.00
47811;BME280;33575;52.600;7.318;2023-02-25T08:22:10;100616.75;;;2.28;100.00
47811;BME280;33575;52.600;7.318;2023-02-25T08:24:40;100614.34;;;2.42;100.00
47811;BME280;33575;52.600;7.318;2023-02-25T08:27:10;100625.16;;;2.04;100.00
47811;BME280;33575;52.600;7.318;2023-02-25T08:29:41;100631.04;;;2.22;100.00
47811;BME280;33575;52.600;7.318;2023-02-25T08:32:12;100625.94;;;2.37;100.00
47811;BME280;33575;52.600;7.318;2023-02-25T08:34:43;100627.99;;;2.15;100.00
47811;BME280;33575;52.600;7.318;2023-02-25T08:37:14;100630.67;;;2.21;100.00
47811;BME280;33575;52.600;7.318;2023-02-25T08:39:44;100633.16;;;2.19;100.00
47811;BME280;33575;52.600;7.318;2023-02-25T08:42:15;100637.54;;;2.22;100.00
47811;BME280;33575;52.600;7.318;2023-02-25T08:44:46;100638.32;;;2.24;100.00
47811;BME280;33575;52.600;7.318;2023-02-25T08:47:17;100645.65;;;1.97;99.54
47811;BME280;33575;52.600;7.318;2023-02-25T08:49:48;100655.67;;;2.02;99.52
47811;BME280;33575;52.600;7.318;2023-02-25T08:52:19;100659.37;;;1.83;99.25
47811;BME280;33575;52.600;7.318;2023-02-25T08:54:49;100662.84;;;1.84;99.05
47811;BME280;33575;52.600;7.318;2023-02-25T08:57:20;100671.34;;;1.91;98.64
47811;BME280;33575;52.600;7.318;2023-02-25T08:59:51;100675.76;;;1.83;94.26
47811;BME280;33575;52.600;7.318;2023-02-25T09:02:22;100683.53;;;1.98;95.30
47811;BME280;33575;52.600;7.318;2023-02-25T09:04:53;100686.67;;;1.67;92.39
47811;BME280;33575;52.600;7.318;2023-02-25T09:07:23;100692.44;;;1.45;91.43
47811;BME280;33575;52.600;7.318;2023-02-25T09:09:54;100694.63;;;1.74;92.50
47811;BME280;33575;52.600;7.318;2023-02-25T09:12:25;100701.12;;;1.52;91.92
47811;BME280;33575;52.600;7.318;2023-02-25T09:14:56;100704.64;;;1.66;92.59
47811;BME280;33575;52.600;7.318;2023-02-25T09:17:27;100723.37;;;1.68;89.44
47811;BME280;33575;52.600;7.318;2023-02-25T09:19:58;100723.69;;;1.64;91.56
47811;BME280;33575;52.600;7.318;2023-02-25T09:22:29;100728.73;;;1.66;90.83
47811;BME280;33575;52.600;7.318;2023-02-25T09:25:00;100735.47;;;1.60;87.29
47811;BME280;33575;52.600;7.318;2023-02-25T09:27:30;100740.65;;;1.45;87.49
47811;BME280;33575;52.600;7.318;2023-02-25T09:30:00;100745.00;;;1.67;89.70
47811;BME280;33575;52.600;7.318;2023-02-25T09:32:30;100748.06;;;1.71;87.16
47811;BME280;33575;52.600;7.318;2023-02-25T09:35:02;100757.84;;;1.47;86.45
47811;BME280;33575;52.600;7.318;2023-02-25T09:37:32;100753.44;;;1.45;85.36
47811;BME280;33575;52.600;7.318;2023-02-25T09:40:03;100760.22;;;1.59;81.13
47811;BME280;33575;52.600;7.318;2023-02-25T09:42:43;100752.10;;;1.45;80.58
47811;BME280;33575;52.600;7.318;2023-02-25T09:45:13;100751.54;;;1.57;81.98
47811;BME280;33575;52.600;7.318;2023-02-25T09:47:41;100753.29;;;1.76;81.05
47811;BME280;33575;52.600;7.318;2023-02-25T09:50:11;100763.96;;;1.90;80.90
47811;BME280;33575;52.600;7.318;2023-02-25T09:52:40;100766.34;;;1.82;78.99
47811;BME280;33575;52.600;7.318;2023-02-25T09:55:30;100779.50;;;1.76;78.47
47811;BME280;33575;52.600;7.318;2023-02-25T09:57:40;100781.70;;;1.79;78.91
47811;BME280;33575;52.600;7.318;2023-02-25T10:00:15;100792.42;;;1.55;78.37
47811;BME280;33575;52.600;7.318;2023-02-25T10:02:46;100788.17;;;1.66;79.67
47811;BME280;33575;52.600;7.318;2023-02-25T10:05:20;100790.23;;;1.82;78.98
47811;BME280;33575;52.600;7.318;2023-02-25T10:07:54;100783.99;;;1.84;81.70
47811;BME280;33575;52.600;7.318;2023-02-25T10:10:18;100794.89;;;1.76;81.39
47811;BME280;33575;52.600;7.318;2023-02-25T10:12:50;100794.25;;;1.82;80.01
47811;BME280;33575;52.600;7.318;2023-02-25T10:17:54;100809.64;;;1.71;76.50
47811;BME280;33575;52.600;7.318;2023-02-25T10:20:30;100812.67;;;1.51;76.36
47811;BME280;33575;52.600;7.318;2023-02-25T10:22:53;100803.10;;;1.60;76.89
47811;BME280;33575;52.600;7.318;2023-02-25T10:25:20;100809.02;;;1.71;78.57
47811;BME280;33575;52.600;7.318;2023-02-25T10:27:52;100811.55;;;1.77;76.73
47811;BME280;33575;52.600;7.318;2023-02-25T10:30:24;100811.33;;;1.95;74.89
47811;BME280;33575;52.600;7.318;2023-02-25T10:32:50;100817.75;;;1.80;74.85
47811;BME280;33575;52.600;7.318;2023-02-25T10:35:25;100812.96;;;1.92;75.29
47811;BME280;33575;52.600;7.318;2023-02-25T10:37:58;100817.84;;;1.88;74.10
47811;BME280;33575;52.600;7.318;2023-02-25T10:40:24;100814.90;;;2.16;78.70
47811;BME280;33575;52.600;7.318;2023-02-25T10:42:57;100819.57;;;2.29;73.81
47811;BME280;33575;52.600;7.318;2023-02-25T10:45:26;100826.10;;;2.11;65.02
47811;BME280;33575;52.600;7.318;2023-02-25T10:48:02;100822.31;;;2.13;66.61
47811;BME280;33575;52.600;7.318;2023-02-25T10:50:30;100827.91;;;2.11;68.63
47811;BME280;33575;52.600;7.318;2023-02-25T10:52:59;100828.59;;;2.25;67.17
47811;BME280;33575;52.600;7.318;2023-02-25T10:55:37;100828.98;;;2.33;70.05
47811;BME280;33575;52.600;7.318;2023-02-25T10:57:58;100842.44;;;2.52;70.07
47811;BME280;33575;52.600;7.318;2023-02-25T11:00:31;100827.96;;;2.58;64.12
47811;BME280;33575;52.600;7.318;2023-02-25T11:03:01;100839.02;;;2.52;64.68
47811;BME280;33575;52.600;7.318;2023-02-25T11:05:34;100841.39;;;2.60;64.96
47811;BME280;33575;52.600;7.318;2023-02-25T11:08:02;100853.17;;;2.86;65.83
47811;BME280;33575;52.600;7.318;2023-02-25T11:10:33;100856.18;;;2.95;65.06
47811;BME280;33575;52.600;7.318;2023-02-25T11:13:26;100856.25;;;2.80;65.21
47811;BME280;33575;52.600;7.318;2023-02-25T11:18:18;100867.04;;;2.96;63.46
47811;BME280;33575;52.600;7.318;2023-02-25T11:20:35;100870.27;;;2.86;65.42
47811;BME280;33575;52.600;7.318;2023-02-25T11:23:12;100873.77;;;2.77;63.66
47811;BME280;33575;52.600;7.318;2023-02-25T11:25:39;100864.29;;;2.65;65.07
47811;BME280;33575;52.600;7.318;2023-02-25T11:28:18;100865.14;;;2.55;65.46
47811;BME280;33575;52.600;7.318;2023-02-25T11:30:39;100867.20;;;2.36;67.24
47811;BME280;33575;52.600;7.318;2023-02-25T11:33:20;100869.23;;;2.53;66.85
47811;BME280;33575;52.600;7.318;2023-02-25T11:35:40;100889.08;;;2.24;63.90
47811;BME280;33575;52.600;7.318;2023-02-25T11:38:14;100884.23;;;2.22;65.55
47811;BME280;33575;52.600;7.318;2023-02-25T11:40:43;100886.62;;;2.36;67.10
47811;BME280;33575;52.600;7.318;2023-02-25T11:43:15;100901.91;;;2.26;66.39
47811;BME280;33575;52.600;7.318;2023-02-25T11:45:50;100899.61;;;2.31;64.90
47811;BME280;33575;52.600;7.318;2023-02-25T11:48:17;100899.92;;;2.67;67.61
47811;BME280;33575;52.600;7.318;2023-02-25T11:50:46;100903.70;;;2.53;64.55
47811;BME280;33575;52.600;7.318;2023-02-25T11:53:23;100902.09;;;2.54;66.78
47811;BME280;33575;52.600;7.318;2023-02-25T11:55:54;100898.26;;;2.92;66.23
47811;BME280;33575;52.600;7.318;2023-02-25T11:58:24;100907.79;;;2.86;65.21
47811;BME280;33575;52.600;7.318;2023-02-25T12:00:53;100901.94;;;2.79;65.63
47811;BME280;33575;52.600;7.318;2023-02-25T12:05:52;100913.85;;;2.79;63.59
47811;BME280;33575;52.600;7.318;2023-02-25T12:08:34;100908.66;;;2.79;66.13
47811;BME280;33575;52.600;7.318;2023-02-25T12:11:02;100915.52;;;2.65;64.47
47811;BME280;33575;52.600;7.318;2023-02-25T12:21:03;100911.54;;;3.05;67.25
47811;BME280;33575;52.600;7.318;2023-02-25T12:25:58;100916.03;;;3.21;65.63
47811;BME280;33575;52.600;7.318;2023-02-25T12:31:05;100921.37;;;2.83;63.99
47811;BME280;33575;52.600;7.318;2023-02-25T12:36:06;100923.35;;;3.04;65.94
47811;BME280;33575;52.600;7.318;2023-02-25T12:43:37;100926.12;;;3.18;66.40
47811;BME280;33575;52.600;7.318;2023-02-25T12:46:13;100932.37;;;3.16;68.73
47811;BME280;33575;52.600;7.318;2023-02-25T12:48:45;100941.41;;;3.01;62.45
47811;BME280;33575;52.600;7.318;2023-02-25T12:53:41;100929.32;;;3.02;63.26
47811;BME280;33575;52.600;7.318;2023-02-25T12:56:17;100936.99;;;3.11;63.97
47811;BME280;33575;52.600;7.318;2023-02-25T12:58:43;100936.01;;;2.98;64.57
47811;BME280;33575;52.600;7.318;2023-02-25T13:01:15;100947.17;;;2.85;65.59
47811;BME280;33575;52.600;7.318;2023-02-25T13:03:50;100950.10;;;2.97;67.16
47811;BME280;33575;52.600;7.318;2023-02-25T13:06:17;100955.02;;;3.18;68.00
47811;BME280;33575;52.600;7.318;2023-02-25T13:08:52;100954.48;;;3.26;66.48
47811;BME280;33575;52.600;7.318;2023-02-25T13:11:17;100960.11;;;3.20;65.18
47811;BME280;33575;52.600;7.318;2023-02-25T13:13:53;100959.98;;;3.12;62.42
47811;BME280;33575;52.600;7.318;2023-02-25T13:16:20;100955.55;;;3.27;65.29
47811;BME280;33575;52.600;7.318;2023-02-25T13:18:45;100955.57;;;3.55;64.35
47811;BME280;33575;52.600;7.318;2023-02-25T13:21:24;100958.23;;;3.45;63.64
47811;BME280;33575;52.600;7.318;2023-02-25T13:23:56;100963.85;;;3.32;62.55
47811;BME280;33575;52.600;7.318;2023-02-25T13:28:59;100964.63;;;3.16;62.50
47811;BME280;33575;52.600;7.318;2023-02-25T13:31:19;100961.43;;;3.28;63.02
47811;BME280;33575;52.600;7.318;2023-02-25T13:34:02;100967.41;;;3.20;62.60
47811;BME280;33575;52.600;7.318;2023-02-25T13:36:28;100969.72;;;3.40;62.95
47811;BME280;33575;52.600;7.318;2023-02-25T13:41:30;100970.48;;;3.29;60.88
47811;BME280;33575;52.600;7.318;2023-02-25T13:43:57;100964.40;;;3.36;60.79
47811;BME280;33575;52.600;7.318;2023-02-25T13:46:30;100965.36;;;3.48;60.53
47811;BME280;33575;52.600;7.318;2023-02-25T13:48:57;100963.95;;;3.59;61.16
47811;BME280;33575;52.600;7.318;2023-02-25T13:51:32;100970.68;;;3.53;58.74
47811;BME280;33575;52.600;7.318;2023-02-25T13:54:02;100970.38;;;3.57;58.61